createdAt,value
2022-08-03T00:01:52.617Z,16.98
2022-08-03T00:04:19.370Z,16.96
2022-08-03T00:06:46.154Z,16.95
2022-08-03T00:09:12.941Z,16.93
2022-08-03T00:11:39.691Z,16.93
2022-08-03T00:14:07.497Z,16.94
2022-08-03T00:16:34.357Z,16.96
2022-08-03T00:19:01.624Z,16.95
2022-08-03T00:21:28.858Z,16.93
2022-08-03T00:23:56.130Z,16.90
2022-08-03T00:26:22.968Z,16.88
2022-08-03T00:28:50.532Z,16.87
2022-08-03T00:31:32.225Z,16.85
2022-08-03T00:34:04.534Z,16.84
2022-08-03T00:36:32.945Z,16.83
2022-08-03T00:38:59.748Z,16.78
2022-08-03T00:41:26.909Z,16.74
2022-08-03T00:43:53.874Z,16.73
2022-08-03T00:46:22.119Z,16.72
2022-08-03T00:48:52.808Z,16.73
2022-08-03T00:51:23.543Z,16.73
2022-08-03T00:53:50.692Z,16.73
2022-08-03T00:56:18.362Z,16.72
2022-08-03T00:58:46.273Z,16.70
2022-08-03T01:01:13.778Z,16.69
2022-08-03T01:03:40.863Z,16.68
2022-08-03T01:06:33.546Z,16.65
2022-08-03T01:09:15.930Z,16.62
2022-08-03T01:12:28.234Z,16.60
2022-08-03T01:15:19.293Z,16.54
2022-08-03T01:17:55.901Z,16.50
2022-08-03T01:20:24.646Z,16.46
2022-08-03T01:22:54.209Z,16.42
2022-08-03T01:25:38.535Z,16.41
2022-08-03T01:28:17.419Z,16.40
2022-08-03T01:30:46.739Z,16.38
2022-08-03T01:33:27.831Z,16.37
2022-08-03T01:36:00.231Z,16.37
2022-08-03T01:38:32.734Z,16.37
2022-08-03T01:41:07.028Z,16.35
2022-08-03T01:43:55.238Z,16.34
2022-08-03T01:46:25.404Z,16.31
2022-08-03T01:48:54.080Z,16.29
2022-08-03T01:51:22.113Z,16.26
2022-08-03T01:53:51.717Z,16.24
2022-08-03T01:56:21.818Z,16.23
2022-08-03T01:58:50.270Z,16.22
2022-08-03T02:01:18.674Z,16.20
2022-08-03T02:04:00.454Z,16.18
2022-08-03T02:07:02.571Z,16.12
2022-08-03T02:09:20.809Z,16.11
2022-08-03T02:11:48.919Z,16.08
2022-08-03T02:14:17.941Z,16.05
2022-08-03T02:16:45.585Z,16.01
2022-08-03T02:19:14.107Z,15.97
2022-08-03T02:21:56.448Z,15.94
2022-08-03T02:24:29.500Z,15.90
2022-08-03T02:26:57.683Z,15.86
2022-08-03T02:29:39.629Z,15.82
2022-08-03T02:32:16.874Z,15.77
2022-08-03T02:34:48.671Z,15.72
2022-08-03T02:37:18.656Z,15.70
2022-08-03T02:39:47.478Z,15.67
2022-08-03T02:42:18.469Z,15.65
2022-08-03T02:44:50.144Z,15.64
2022-08-03T02:47:20.847Z,15.65
2022-08-03T02:49:52.163Z,15.67
2022-08-03T02:52:22.670Z,15.66
2022-08-03T02:54:52.873Z,15.63
2022-08-03T02:57:21.297Z,15.62
2022-08-03T02:59:49.172Z,15.61
2022-08-03T03:02:17.909Z,15.60
2022-08-03T03:04:58.878Z,15.57
2022-08-03T03:07:34.660Z,15.56
2022-08-03T03:10:22.422Z,15.57
2022-08-03T03:12:55.625Z,15.56
2022-08-03T03:15:24.178Z,15.55
2022-08-03T03:17:53.102Z,15.55
2022-08-03T03:20:29.034Z,15.55
2022-08-03T03:23:01.736Z,15.55
2022-08-03T03:25:32.459Z,15.55
2022-08-03T03:28:00.118Z,15.58
2022-08-03T03:30:27.684Z,15.60
2022-08-03T03:32:55.407Z,15.63
2022-08-03T03:35:23.654Z,15.65
2022-08-03T03:37:57.023Z,15.66
2022-08-03T03:40:24.736Z,15.69
2022-08-03T03:42:53.002Z,15.70
2022-08-03T03:45:47.547Z,15.76
2022-08-03T03:48:15.740Z,15.84
2022-08-03T03:50:44.048Z,15.96
2022-08-03T03:53:13.275Z,16.04
2022-08-03T03:55:59.732Z,16.13
2022-08-03T03:58:32.356Z,16.23
2022-08-03T04:01:00.653Z,16.28
2022-08-03T04:03:27.791Z,16.29
2022-08-03T04:06:13.472Z,16.29
2022-08-03T04:08:59.191Z,16.31
2022-08-03T04:11:31.822Z,16.33
2022-08-03T04:14:14.443Z,16.40
2022-08-03T04:16:45.811Z,16.45
2022-08-03T04:19:51.022Z,16.48
2022-08-03T04:22:22.075Z,16.52
2022-08-03T04:25:08.833Z,16.57
2022-08-03T04:27:41.055Z,16.63
2022-08-03T04:30:09.007Z,16.66
2022-08-03T04:32:39.992Z,16.70
2022-08-03T04:35:10.044Z,16.77
2022-08-03T04:37:43.546Z,16.81
2022-08-03T04:40:15.559Z,16.88
2022-08-03T04:42:43.401Z,16.94
2022-08-03T04:45:15.255Z,16.99
2022-08-03T04:47:44.146Z,17.03
2022-08-03T04:50:13.518Z,17.08
2022-08-03T04:52:42.523Z,17.15
2022-08-03T04:55:09.578Z,17.21
2022-08-03T04:57:36.381Z,17.29
2022-08-03T05:00:05.212Z,17.33
2022-08-03T05:02:32.141Z,17.40
2022-08-03T05:04:59.645Z,17.46
2022-08-03T05:07:26.635Z,17.52
2022-08-03T05:10:14.712Z,17.60
2022-08-03T05:12:46.223Z,17.67
2022-08-03T05:15:13.907Z,17.75
2022-08-03T05:17:40.942Z,17.83
2022-08-03T05:20:08.345Z,17.90
2022-08-03T05:22:35.140Z,17.96
2022-08-03T05:25:02.437Z,18.03
2022-08-03T05:27:29.268Z,18.11
2022-08-03T05:29:56.052Z,18.19
2022-08-03T05:32:42.811Z,18.29
2022-08-03T05:36:02.141Z,18.38
2022-08-03T05:37:56.441Z,18.51
2022-08-03T05:40:23.315Z,18.60
2022-08-03T05:42:50.148Z,18.70
2022-08-03T05:45:19.803Z,18.77
2022-08-03T05:47:47.457Z,18.88
2022-08-03T05:50:14.359Z,19.00
2022-08-03T05:52:43.192Z,19.12
2022-08-03T05:55:13.355Z,19.27
2022-08-03T05:57:40.810Z,19.38
2022-08-03T06:00:11.671Z,19.46
2022-08-03T06:03:00.689Z,19.56
2022-08-03T06:05:29.182Z,19.69
2022-08-03T06:07:56.095Z,19.75
2022-08-03T06:10:35.712Z,19.86
2022-08-03T06:13:04.991Z,20.00
2022-08-03T06:15:32.963Z,20.09
2022-08-03T06:18:02.199Z,20.20
2022-08-03T06:20:29.789Z,20.29
2022-08-03T06:23:00.320Z,20.38
2022-08-03T06:25:28.407Z,20.46
2022-08-03T06:28:00.093Z,20.53
2022-08-03T06:30:28.824Z,20.66
2022-08-03T06:32:56.194Z,20.78
2022-08-03T06:35:23.062Z,20.88
2022-08-03T06:37:51.737Z,20.97
2022-08-03T06:40:24.648Z,21.10
2022-08-03T06:42:51.572Z,21.24
2022-08-03T06:45:18.401Z,21.34
2022-08-03T06:47:45.325Z,21.37
2022-08-03T06:50:17.413Z,21.43
2022-08-03T06:52:45.351Z,21.50
2022-08-03T06:55:12.255Z,21.61
2022-08-03T06:57:38.941Z,21.80
2022-08-03T07:00:11.850Z,21.93
2022-08-03T07:02:39.405Z,22.00
2022-08-03T07:05:08.244Z,22.09
2022-08-03T07:07:35.044Z,22.23
2022-08-03T07:10:02.207Z,22.34
2022-08-03T07:12:30.531Z,22.45
2022-08-03T07:15:02.254Z,22.54
2022-08-03T07:17:31.406Z,22.67
2022-08-03T07:19:59.530Z,22.81
2022-08-03T07:22:26.307Z,23.00
2022-08-03T07:24:53.426Z,23.20
2022-08-03T07:46:45.968Z,24.10
2022-08-03T07:49:14.249Z,24.32
2022-08-03T07:51:42.484Z,24.40
2022-08-03T07:54:10.706Z,24.51
2022-08-03T07:56:38.919Z,24.55
2022-08-03T07:59:07.101Z,24.62
2022-08-03T08:01:38.164Z,24.71
2022-08-03T08:04:06.550Z,24.90
2022-08-03T08:06:34.884Z,25.12
2022-08-03T08:09:03.015Z,25.35
2022-08-03T08:11:31.130Z,25.55
2022-08-03T08:14:02.788Z,25.69
2022-08-03T08:16:31.440Z,25.89
2022-08-03T08:18:59.542Z,26.09
2022-08-03T08:21:27.905Z,26.26
2022-08-03T08:24:18.058Z,26.46
2022-08-03T08:26:48.710Z,26.62
2022-08-03T08:29:16.943Z,26.86
2022-08-03T08:31:45.045Z,27.21
2022-08-03T08:34:14.157Z,27.24
2022-08-03T08:36:42.741Z,27.26
2022-08-03T08:39:11.025Z,27.38
2022-08-03T08:41:39.327Z,27.09
2022-08-03T08:44:14.508Z,27.25
2022-08-03T08:46:43.259Z,27.79
2022-08-03T08:49:17.466Z,27.96
2022-08-03T08:51:59.770Z,28.04
2022-08-03T08:54:32.765Z,27.89
2022-08-03T08:57:09.102Z,27.80
2022-08-03T08:59:47.827Z,27.37
2022-08-03T09:02:17.681Z,27.02
2022-08-03T09:04:48.926Z,26.92
2022-08-03T09:07:20.344Z,27.45
2022-08-03T09:10:11.027Z,28.01
2022-08-03T09:12:43.753Z,28.23
2022-08-03T09:15:21.980Z,28.26
2022-08-03T09:17:52.188Z,28.67
2022-08-03T09:20:21.906Z,28.72
2022-08-03T09:22:56.574Z,28.83
2022-08-03T09:25:43.377Z,29.16
2022-08-03T09:28:53.956Z,29.71
2022-08-03T09:31:08.351Z,30.22
2022-08-03T09:33:48.077Z,30.38
2022-08-03T09:36:36.370Z,30.22
2022-08-03T09:39:06.902Z,29.56
2022-08-03T09:41:35.014Z,29.07
2022-08-03T09:44:03.187Z,29.21
2022-08-03T09:46:32.848Z,29.13
2022-08-03T09:49:12.151Z,29.28
2022-08-03T09:52:32.387Z,29.67
2022-08-03T09:54:30.812Z,29.77
2022-08-03T09:56:59.585Z,29.96
2022-08-03T09:59:30.365Z,29.94
2022-08-03T10:02:02.597Z,30.10
2022-08-03T10:04:30.782Z,29.52
2022-08-03T10:07:10.743Z,28.71
2022-08-03T10:09:38.870Z,28.22
2022-08-03T10:12:12.492Z,28.55
2022-08-03T10:14:42.426Z,28.83
2022-08-03T10:17:10.538Z,29.49
2022-08-03T10:19:38.952Z,30.05
2022-08-03T10:22:21.979Z,30.46
2022-08-03T10:24:56.408Z,30.60
2022-08-03T10:27:25.528Z,30.01
2022-08-03T10:29:56.490Z,30.09
2022-08-03T10:32:52.350Z,30.59
2022-08-03T10:35:23.694Z,30.67
2022-08-03T10:38:03.578Z,30.69
2022-08-03T10:40:48.025Z,30.28
2022-08-03T10:43:40.834Z,30.00
2022-08-03T10:46:08.987Z,29.58
2022-08-03T10:48:38.317Z,29.79
2022-08-03T10:51:07.714Z,29.62
2022-08-03T10:53:44.028Z,29.96
2022-08-03T10:57:03.388Z,29.74
2022-08-03T10:59:48.677Z,29.85
2022-08-03T11:02:18.145Z,30.16
2022-08-03T11:04:46.309Z,29.73
2022-08-03T11:07:25.131Z,29.25
2022-08-03T11:09:55.249Z,28.74
2022-08-03T11:12:32.293Z,28.50
2022-08-03T11:15:05.126Z,28.63
2022-08-03T11:17:46.238Z,29.18
2022-08-03T11:20:44.290Z,30.05
2022-08-03T11:23:13.133Z,30.66
2022-08-03T11:26:15.129Z,30.86
2022-08-03T11:28:46.201Z,30.25
2022-08-03T11:31:47.251Z,29.71
2022-08-03T11:34:13.737Z,29.06
2022-08-03T11:37:21.933Z,28.54
2022-08-03T11:39:53.256Z,27.83
2022-08-03T11:42:24.477Z,27.35
2022-08-03T11:45:00.556Z,27.06
2022-08-03T11:47:30.168Z,26.90
2022-08-03T11:50:02.195Z,26.95
2022-08-03T11:52:40.568Z,26.91
2022-08-03T11:55:10.426Z,26.79
2022-08-03T11:59:12.805Z,26.66
2022-08-03T12:00:30.938Z,26.49
2022-08-03T12:03:14.307Z,26.41
2022-08-03T12:05:52.321Z,26.45
2022-08-03T12:08:26.629Z,26.72
2022-08-03T12:10:56.862Z,26.93
2022-08-03T12:14:45.352Z,27.71
2022-08-03T12:16:19.832Z,28.93
2022-08-03T12:19:02.751Z,30.08
2022-08-03T12:21:31.184Z,30.33
2022-08-03T12:24:01.497Z,29.79
2022-08-03T12:26:42.429Z,29.35
2022-08-03T12:29:26.444Z,28.90
2022-08-03T12:31:56.004Z,28.42
2022-08-03T12:34:24.503Z,27.94
2022-08-03T12:36:56.534Z,27.51
2022-08-03T12:39:27.584Z,27.17
2022-08-03T12:41:56.986Z,26.87
2022-08-03T12:44:35.356Z,26.49
2022-08-03T12:47:06.866Z,26.15
2022-08-03T12:49:49.474Z,25.86
2022-08-03T12:52:19.183Z,25.69
2022-08-03T12:55:01.497Z,25.54
2022-08-03T12:57:42.697Z,25.38
2022-08-03T13:00:21.376Z,25.29
2022-08-03T13:03:38.914Z,25.20
2022-08-03T13:05:50.593Z,25.07
2022-08-03T13:08:24.144Z,24.98
2022-08-03T13:10:52.271Z,24.95
2022-08-03T13:13:39.675Z,24.93
2022-08-03T13:16:07.756Z,24.95
2022-08-03T13:18:35.899Z,24.98
2022-08-03T13:21:04.251Z,25.03
2022-08-03T13:23:32.654Z,25.18
2022-08-03T13:26:00.727Z,26.01
2022-08-03T13:28:28.874Z,27.04
2022-08-03T13:30:57.279Z,27.38
2022-08-03T13:33:27.908Z,27.45
2022-08-03T13:35:56.270Z,27.44
2022-08-03T13:38:27.243Z,27.62
2022-08-03T13:40:56.782Z,28.02
2022-08-03T13:43:24.926Z,28.32
2022-08-03T13:45:57.698Z,28.30
2022-08-03T13:48:36.776Z,28.13
2022-08-03T13:51:21.839Z,27.88
2022-08-03T13:53:52.489Z,27.71
2022-08-03T13:56:20.558Z,27.85
2022-08-03T13:58:48.660Z,28.19
2022-08-03T14:01:16.883Z,28.61
2022-08-03T14:03:46.573Z,28.81
2022-08-03T14:06:15.265Z,28.64
2022-08-03T14:08:43.541Z,28.61
2022-08-03T14:11:11.944Z,28.59
2022-08-03T14:13:40.147Z,28.46
2022-08-03T14:16:09.872Z,28.31
2022-08-03T14:18:40.101Z,28.04
2022-08-03T14:21:09.950Z,27.73
2022-08-03T14:23:38.511Z,27.58
2022-08-03T14:26:08.044Z,27.41
2022-08-03T14:28:36.549Z,27.31
2022-08-03T14:31:04.789Z,27.21
2022-08-03T14:33:36.758Z,27.05
2022-08-03T14:36:05.309Z,26.88
2022-08-03T14:38:33.503Z,26.79
2022-08-03T14:41:01.875Z,26.80
2022-08-03T14:43:34.086Z,26.88
2022-08-03T14:46:02.562Z,27.12
2022-08-03T14:50:10.340Z,27.36
2022-08-03T14:51:19.475Z,27.57
2022-08-03T14:53:47.605Z,27.82
2022-08-03T14:56:15.942Z,27.99
2022-08-03T14:58:44.005Z,27.88
2022-08-03T15:02:02.255Z,27.89
2022-08-03T15:04:00.381Z,27.99
2022-08-03T15:06:28.524Z,27.84
2022-08-03T15:09:13.773Z,27.71
2022-08-03T15:11:44.861Z,27.78
2022-08-03T15:14:13.328Z,27.95
2022-08-03T15:16:43.087Z,28.07
2022-08-03T15:20:03.191Z,28.17
2022-08-03T15:22:00.944Z,28.24
2022-08-03T15:24:29.776Z,28.19
2022-08-03T15:26:58.057Z,27.87
2022-08-03T15:30:05.377Z,27.46
2022-08-03T15:32:14.707Z,27.11
2022-08-03T15:34:50.492Z,26.88
2022-08-03T15:37:20.199Z,26.67
2022-08-03T15:39:59.028Z,26.46
2022-08-03T15:42:33.637Z,26.29
2022-08-03T15:45:01.858Z,26.14
2022-08-03T15:47:30.061Z,26.04
2022-08-03T15:49:58.193Z,25.96
2022-08-03T15:52:26.398Z,25.90
2022-08-03T15:54:54.522Z,25.81
2022-08-03T15:57:23.130Z,25.77
2022-08-03T15:59:52.095Z,25.73
2022-08-03T16:02:20.381Z,25.65
2022-08-03T16:04:49.053Z,25.56
2022-08-03T16:07:37.147Z,25.54
2022-08-03T16:10:05.747Z,25.54
2022-08-03T16:12:33.962Z,25.48
2022-08-03T16:15:02.454Z,25.40
2022-08-03T16:17:31.238Z,25.32
2022-08-03T16:19:59.611Z,25.25
2022-08-03T16:22:28.703Z,25.15
2022-08-03T16:24:58.556Z,25.01
2022-08-03T16:27:55.787Z,24.92
2022-08-03T16:30:19.730Z,24.83
2022-08-03T16:32:48.534Z,24.77
2022-08-03T16:35:19.804Z,24.72
2022-08-03T16:37:56.533Z,24.69
2022-08-03T16:40:25.587Z,24.65
2022-08-03T16:42:53.881Z,24.62
2022-08-03T16:45:22.504Z,24.57
2022-08-03T16:48:05.758Z,24.50
2022-08-03T16:50:36.060Z,24.44
2022-08-03T16:53:09.829Z,24.36
2022-08-03T16:55:48.780Z,24.30
2022-08-03T16:58:41.285Z,24.22
2022-08-03T17:01:24.138Z,24.12
2022-08-03T17:04:02.025Z,24.04
2022-08-03T17:06:36.293Z,23.97
2022-08-03T17:09:10.182Z,23.92
2022-08-03T17:11:46.533Z,23.84
2022-08-03T17:14:22.675Z,23.78
2022-08-03T17:16:54.302Z,23.72
2022-08-03T17:19:25.013Z,23.67
2022-08-03T17:22:04.302Z,23.62
2022-08-03T17:24:42.091Z,23.55
2022-08-03T17:28:41.619Z,23.47
2022-08-03T17:30:07.713Z,23.38
2022-08-03T17:32:42.621Z,23.29
2022-08-03T17:35:11.442Z,23.21
2022-08-03T17:37:57.405Z,23.13
2022-08-03T17:40:27.388Z,23.04
2022-08-03T17:43:01.006Z,22.96
2022-08-03T17:45:51.906Z,22.88
2022-08-03T17:48:18.462Z,22.80
2022-08-03T17:50:51.360Z,22.73
2022-08-03T17:53:25.008Z,22.65
2022-08-03T17:56:44.941Z,22.56
2022-08-03T17:59:16.033Z,22.46
2022-08-03T18:02:29.591Z,22.39
2022-08-03T18:05:16.329Z,22.30
2022-08-03T18:07:59.494Z,22.23
2022-08-03T18:10:35.802Z,22.15
2022-08-03T18:13:10.976Z,22.08
2022-08-03T18:15:47.962Z,22.02
2022-08-03T18:21:09.344Z,21.90
2022-08-03T18:23:50.327Z,21.86
2022-08-03T18:26:22.090Z,21.82
2022-08-03T18:28:54.880Z,21.78
2022-08-03T18:31:59.593Z,21.75
2022-08-03T18:34:32.419Z,21.71
2022-08-03T18:37:08.027Z,21.67
2022-08-03T18:39:49.718Z,21.63
2022-08-03T18:42:19.848Z,21.58
2022-08-03T18:44:54.343Z,21.54
2022-08-03T18:47:50.559Z,21.51
2022-08-03T18:50:41.214Z,21.43
2022-08-03T18:54:02.183Z,21.36
2022-08-03T18:56:45.250Z,21.27
2022-08-03T18:59:30.339Z,21.19
2022-08-03T19:02:09.332Z,21.13
2022-08-03T19:04:47.508Z,21.09
2022-08-03T19:07:23.327Z,21.05
2022-08-03T19:09:58.895Z,21.00
2022-08-03T19:12:39.482Z,21.00
2022-08-03T19:15:41.359Z,21.04
2022-08-03T19:18:18.005Z,21.09
2022-08-03T19:20:56.192Z,21.16
2022-08-03T19:23:25.985Z,21.25
2022-08-03T19:26:02.415Z,21.32
2022-08-03T19:28:33.366Z,21.36
2022-08-03T19:31:02.577Z,21.42
2022-08-03T19:33:55.883Z,21.50
2022-08-03T19:36:28.283Z,21.55
2022-08-03T19:38:57.643Z,21.57
2022-08-03T19:41:42.215Z,21.56
2022-08-03T19:44:20.278Z,21.55
2022-08-03T19:46:57.967Z,21.51
2022-08-03T19:50:02.839Z,21.44
2022-08-03T19:52:24.349Z,21.38
2022-08-03T19:57:57.087Z,21.29
2022-08-03T20:00:30.566Z,21.24
2022-08-03T20:03:02.787Z,21.18
2022-08-03T20:05:45.039Z,21.12
2022-08-03T20:08:20.724Z,21.07
2022-08-03T20:10:50.014Z,21.01
2022-08-03T20:13:20.526Z,20.95
2022-08-03T20:15:49.111Z,20.90
2022-08-03T20:18:22.193Z,20.87
2022-08-03T20:20:52.679Z,20.82
2022-08-03T20:23:22.817Z,20.77
2022-08-03T20:28:51.933Z,20.65
2022-08-03T20:31:25.167Z,20.60
2022-08-03T20:34:00.954Z,20.56
2022-08-03T20:36:29.248Z,20.52
2022-08-03T20:38:59.654Z,20.47
2022-08-03T20:41:28.132Z,20.45
2022-08-03T20:44:01.012Z,20.42
2022-08-03T20:46:40.636Z,20.41
2022-08-03T20:49:22.921Z,20.38
2022-08-03T20:51:53.232Z,20.37
2022-08-03T20:54:30.951Z,20.36
2022-08-03T20:57:04.217Z,20.34
2022-08-03T20:59:50.598Z,20.32
2022-08-03T21:02:29.505Z,20.30
2022-08-03T21:05:03.051Z,20.29
2022-08-03T21:07:45.905Z,20.27
2022-08-03T21:10:30.403Z,20.26
2022-08-03T21:12:57.499Z,21.97
2022-08-03T21:13:08.908Z,21.34
2022-08-03T21:13:12.468Z,20.72
2022-08-03T21:13:16.872Z,20.25
2022-08-03T21:16:11.284Z,20.22
2022-08-03T21:18:50.599Z,20.19
2022-08-03T21:21:21.512Z,20.17
2022-08-03T21:23:53.052Z,20.15
2022-08-03T21:26:25.723Z,20.12
2022-08-03T21:28:56.608Z,20.14
2022-08-03T21:31:27.020Z,20.11
2022-08-03T21:33:58.522Z,20.10
2022-08-03T21:36:28.770Z,20.09
2022-08-03T21:38:58.655Z,20.09
2022-08-03T21:41:30.061Z,20.08
2022-08-03T21:43:59.579Z,20.04
2022-08-03T21:46:35.787Z,20.00
2022-08-03T21:50:04.559Z,19.99
2022-08-03T21:51:59.404Z,19.97
2022-08-03T21:54:34.814Z,19.95
2022-08-03T21:57:06.033Z,19.94
2022-08-03T21:59:38.253Z,19.92
2022-08-03T22:02:15.598Z,19.89
2022-08-03T22:04:56.303Z,19.84
2022-08-03T22:07:27.251Z,19.80
2022-08-03T22:09:56.346Z,19.77
2022-08-03T22:12:26.812Z,19.75
2022-08-03T22:15:00.362Z,19.72
2022-08-03T22:17:54.527Z,19.69
2022-08-03T22:20:23.501Z,19.67
2022-08-03T22:22:56.655Z,19.65
2022-08-03T22:25:29.819Z,19.61
2022-08-03T22:28:00.826Z,19.56
2022-08-03T22:30:29.095Z,19.52
2022-08-03T22:32:58.954Z,19.48
2022-08-03T22:35:28.456Z,19.45
2022-08-03T22:37:58.643Z,19.43
2022-08-03T22:40:28.044Z,19.41
2022-08-03T22:42:57.135Z,19.38
2022-08-03T22:46:06.059Z,19.34
2022-08-03T22:48:14.519Z,19.30
2022-08-03T22:50:44.623Z,19.26
2022-08-03T22:53:17.922Z,19.22
2022-08-03T22:55:48.985Z,19.19
2022-08-03T22:58:17.940Z,19.17
2022-08-03T23:00:53.859Z,19.17
2022-08-03T23:03:58.889Z,19.16
2022-08-03T23:06:19.161Z,19.16
2022-08-03T23:08:47.840Z,19.15
2022-08-03T23:11:18.749Z,19.14
2022-08-03T23:13:52.593Z,19.13
2022-08-03T23:16:27.956Z,19.11
2022-08-03T23:19:16.359Z,19.08
2022-08-03T23:22:00.088Z,19.06
2022-08-03T23:24:30.453Z,19.06
2022-08-03T23:26:59.411Z,19.05
2022-08-03T23:29:30.650Z,19.03
2022-08-03T23:31:59.660Z,19.03
2022-08-03T23:34:49.813Z,19.01
2022-08-03T23:37:19.518Z,19.01
2022-08-03T23:39:49.349Z,19.00
2022-08-03T23:42:19.747Z,18.99
2022-08-03T23:44:55.788Z,18.98
2022-08-03T23:47:46.615Z,18.96
2022-08-03T23:50:14.723Z,18.95
2022-08-03T23:53:33.732Z,18.93
2022-08-03T23:56:32.356Z,18.89
2022-08-03T23:59:14.622Z,18.92
